createdAt,value
2019-05-13T00:01:43.537Z,3.01
2019-05-13T00:04:14.282Z,3.02
2019-05-13T00:06:53.470Z,3.03
2019-05-13T00:09:14.549Z,2.98
2019-05-13T00:14:18.421Z,2.93
2019-05-13T00:16:47.704Z,2.87
2019-05-13T00:19:16.979Z,2.84
2019-05-13T00:21:46.263Z,2.85
2019-05-13T00:24:15.545Z,2.83
2019-05-13T00:26:44.832Z,2.83
2019-05-13T00:29:14.383Z,2.81
2019-05-13T00:31:43.886Z,2.78
2019-05-13T00:34:14.653Z,2.77
2019-05-13T00:36:44.665Z,2.77
2019-05-13T00:39:15.467Z,2.77
2019-05-13T00:41:45.927Z,2.72
2019-05-13T00:44:15.207Z,2.68
2019-05-13T00:47:04.423Z,2.63
2019-05-13T00:49:34.833Z,2.65
2019-05-13T00:52:04.171Z,2.63
2019-05-13T00:54:34.188Z,2.59
2019-05-13T00:57:04.555Z,2.54
2019-05-13T00:59:34.258Z,2.54
2019-05-13T01:02:05.329Z,2.52
2019-05-13T01:04:53.660Z,2.48
2019-05-13T01:10:13.220Z,2.46
2019-05-13T01:12:44.150Z,2.44
2019-05-13T01:18:14.359Z,2.40
2019-05-13T01:20:45.058Z,2.38
2019-05-13T01:23:14.394Z,2.37
2019-05-13T01:25:44.502Z,2.32
2019-05-13T01:28:14.709Z,2.28
2019-05-13T01:30:44.240Z,2.28
2019-05-13T01:33:14.394Z,2.24
2019-05-13T01:38:19.601Z,2.23
2019-05-13T01:40:48.879Z,2.23
2019-05-13T01:43:18.171Z,2.25
2019-05-13T01:45:47.474Z,2.21
2019-05-13T01:48:16.756Z,2.17
2019-05-13T01:50:46.037Z,2.16
2019-05-13T01:53:15.319Z,2.14
2019-05-13T01:55:44.591Z,2.12
2019-05-13T01:58:14.598Z,2.10
2019-05-13T02:01:05.062Z,2.07
2019-05-13T02:03:34.857Z,1.82
2019-05-13T02:06:04.139Z,2.04
2019-05-13T02:08:33.775Z,2.05
2019-05-13T02:11:04.721Z,2.03
2019-05-13T02:13:34.545Z,2.04
2019-05-13T02:16:24.466Z,2.04
2019-05-13T02:19:14.386Z,2.03
2019-05-13T02:21:44.042Z,1.99
2019-05-13T02:24:14.740Z,1.99
2019-05-13T02:26:44.042Z,2.02
2019-05-13T02:29:14.318Z,2.02
2019-05-13T02:31:51.128Z,2.00
2019-05-13T02:34:15.314Z,1.99
2019-05-13T02:36:44.628Z,1.98
2019-05-13T02:39:13.938Z,1.99
2019-05-13T02:41:43.417Z,1.97
2019-05-13T02:44:12.736Z,1.98
2019-05-13T02:46:44.355Z,1.95
2019-05-13T02:49:13.058Z,1.95
2019-05-13T02:54:34.170Z,1.93
2019-05-13T02:57:03.824Z,1.95
2019-05-13T02:59:33.595Z,1.95
2019-05-13T03:02:04.283Z,1.95
2019-05-13T03:04:34.682Z,1.96
2019-05-13T03:07:03.951Z,1.96
2019-05-13T03:09:33.217Z,1.94
2019-05-13T03:12:03.976Z,1.94
2019-05-13T03:14:33.477Z,1.93
2019-05-13T03:17:22.566Z,1.93
2019-05-13T03:20:16.499Z,1.93
2019-05-13T03:22:43.460Z,1.95
2019-05-13T03:25:13.822Z,1.95
2019-05-13T03:27:43.150Z,1.96
2019-05-13T03:30:16.464Z,1.97
2019-05-13T03:32:52.230Z,2.00
2019-05-13T03:35:16.279Z,2.02
2019-05-13T03:38:06.074Z,2.08
2019-05-13T03:43:53.280Z,2.14
2019-05-13T03:52:24.832Z,2.30
2019-05-13T03:55:33.411Z,2.45
2019-05-13T03:58:03.287Z,2.48
2019-05-13T04:00:33.804Z,2.48
2019-05-13T04:03:03.640Z,2.52
2019-05-13T04:05:34.276Z,2.54
2019-05-13T04:08:03.718Z,2.56
2019-05-13T04:13:28.107Z,2.65
2019-05-13T04:21:27.130Z,2.81
2019-05-13T04:23:56.393Z,2.91
2019-05-13T04:26:25.669Z,2.98
2019-05-13T04:28:54.970Z,3.08
2019-05-13T04:34:12.678Z,3.42
2019-05-13T04:36:43.022Z,3.61
2019-05-13T04:39:13.299Z,3.76
2019-05-13T04:41:42.699Z,3.91
2019-05-13T04:44:13.045Z,4.10
2019-05-13T04:46:43.530Z,4.26
2019-05-13T04:49:14.002Z,4.39
2019-05-13T04:51:43.421Z,4.51
2019-05-13T04:54:13.267Z,4.63
2019-05-13T04:56:43.757Z,4.77
2019-05-13T04:59:34.584Z,4.90
2019-05-13T05:02:49.501Z,5.03
2019-05-13T05:05:52.781Z,5.17
2019-05-13T05:12:22.932Z,5.38
2019-05-13T05:15:32.262Z,5.48
2019-05-13T05:18:38.612Z,5.61
2019-05-13T05:24:57.026Z,5.75
2019-05-13T05:31:23.087Z,5.69
2019-05-13T05:34:32.197Z,5.64
2019-05-13T05:37:43.853Z,5.70
2019-05-13T05:40:27.093Z,5.80
2019-05-13T05:43:23.478Z,5.96
2019-05-13T05:52:08.609Z,6.57
2019-05-13T05:55:17.304Z,6.74
2019-05-13T05:58:25.926Z,6.85
2019-05-13T06:04:12.617Z,6.88
2019-05-13T06:09:43.144Z,6.86
2019-05-13T06:12:52.357Z,6.88
2019-05-13T06:15:22.766Z,6.96
2019-05-13T06:20:41.830Z,7.05
2019-05-13T06:23:11.610Z,7.07
2019-05-13T06:25:42.937Z,7.08
2019-05-13T06:28:13.444Z,7.17
2019-05-13T06:30:42.763Z,7.26
2019-05-13T06:33:51.617Z,7.28
2019-05-13T06:36:22.130Z,7.31
2019-05-13T06:41:26.532Z,7.48
2019-05-13T06:43:55.829Z,7.59
2019-05-13T06:46:44.163Z,7.72
2019-05-13T06:49:13.495Z,7.84
2019-05-13T06:52:02.106Z,8.00
2019-05-13T06:54:33.172Z,8.13
2019-05-13T06:59:52.419Z,8.37
2019-05-13T07:02:21.949Z,8.52
2019-05-13T07:04:51.784Z,8.59
2019-05-13T07:07:42.349Z,8.70
2019-05-13T07:10:12.817Z,8.84
2019-05-13T07:13:02.370Z,8.94
2019-05-13T07:18:21.948Z,9.18
2019-05-13T07:20:53.172Z,9.44
2019-05-13T07:23:23.576Z,9.65
2019-05-13T07:25:52.860Z,9.72
2019-05-13T07:28:22.157Z,9.79
2019-05-13T07:30:51.737Z,9.83
2019-05-13T07:33:22.473Z,9.85
2019-05-13T07:36:12.838Z,9.96
2019-05-13T07:38:43.269Z,10.06
2019-05-13T07:41:12.546Z,10.11
2019-05-13T07:43:42.634Z,10.19
2019-05-13T07:46:12.895Z,10.28
2019-05-13T07:48:42.137Z,10.43
2019-05-13T07:51:12.076Z,10.55
2019-05-13T07:53:42.711Z,10.71
2019-05-13T07:56:13.466Z,10.84
2019-05-13T07:58:42.752Z,10.89
2019-05-13T08:01:12.435Z,11.03
2019-05-13T08:03:43.028Z,11.11
2019-05-13T08:06:12.305Z,10.92
2019-05-13T08:08:41.849Z,11.30
2019-05-13T08:11:12.918Z,11.41
2019-05-13T08:13:44.557Z,11.47
2019-05-13T08:16:14.606Z,11.55
2019-05-13T08:18:44.016Z,11.63
2019-05-13T08:21:13.250Z,11.69
2019-05-13T08:23:42.530Z,11.81
2019-05-13T08:26:12.522Z,11.87
2019-05-13T08:29:05.582Z,11.81
2019-05-13T08:31:32.979Z,11.60
2019-05-13T08:34:02.718Z,11.60
2019-05-13T08:36:33.722Z,11.64
2019-05-13T08:39:03.248Z,11.67
2019-05-13T08:41:32.524Z,11.73
2019-05-13T08:44:02.072Z,11.72
2019-05-13T08:46:32.221Z,11.65
2019-05-13T08:49:03.818Z,11.74
2019-05-13T08:51:34.827Z,11.84
2019-05-13T08:54:04.757Z,11.94
2019-05-13T08:56:34.080Z,12.07
2019-05-13T08:59:03.518Z,12.14
2019-05-13T09:01:32.881Z,12.32
2019-05-13T09:04:02.809Z,12.31
2019-05-13T09:06:44.288Z,12.35
2019-05-13T09:09:13.649Z,12.44
2019-05-13T09:11:42.978Z,12.60
2019-05-13T09:14:12.354Z,12.55
2019-05-13T09:16:42.023Z,12.47
2019-05-13T09:19:16.087Z,12.47
2019-05-13T09:21:43.699Z,12.36
2019-05-13T09:24:24.614Z,12.29
2019-05-13T09:26:44.016Z,12.44
2019-05-13T09:29:13.264Z,12.67
2019-05-13T09:31:42.589Z,12.80
2019-05-13T09:34:12.369Z,12.91
2019-05-13T09:36:42.898Z,12.88
2019-05-13T09:39:12.792Z,12.84
2019-05-13T09:42:02.846Z,12.73
2019-05-13T09:47:34.750Z,12.78
2019-05-13T09:50:04.784Z,12.72
2019-05-13T09:52:39.270Z,12.58
2019-05-13T09:55:24.419Z,12.71
2019-05-13T09:57:37.570Z,12.76
2019-05-13T10:03:16.040Z,12.59
2019-05-13T10:05:45.355Z,12.55
2019-05-13T10:08:14.655Z,12.38
2019-05-13T10:10:43.943Z,12.15
2019-05-13T10:13:32.217Z,12.02
2019-05-13T10:16:01.634Z,11.92
2019-05-13T10:18:32.659Z,12.00
2019-05-13T10:21:42.055Z,11.98
2019-05-13T10:24:12.702Z,11.85
2019-05-13T10:26:43.444Z,11.99
2019-05-13T10:32:07.394Z,12.17
2019-05-13T10:40:33.098Z,12.43
2019-05-13T10:43:02.435Z,12.76
2019-05-13T10:45:33.188Z,13.00
2019-05-13T10:48:03.028Z,13.20
2019-05-13T10:50:53.192Z,13.24
2019-05-13T10:53:23.729Z,13.32
2019-05-13T10:56:12.014Z,13.55
2019-05-13T10:58:43.040Z,13.71
2019-05-13T11:01:12.344Z,13.92
2019-05-13T11:03:42.797Z,14.09
2019-05-13T11:06:12.657Z,13.70
2019-05-13T11:08:42.444Z,13.59
2019-05-13T11:11:13.633Z,13.35
2019-05-13T11:13:54.507Z,13.07
2019-05-13T11:16:15.024Z,12.91
2019-05-13T11:18:44.298Z,12.49
2019-05-13T11:21:13.600Z,12.77
2019-05-13T11:23:42.881Z,12.96
2019-05-13T11:26:12.888Z,13.18
2019-05-13T11:28:43.175Z,13.15
2019-05-13T11:31:12.445Z,13.35
2019-05-13T11:33:42.477Z,13.48
2019-05-13T11:36:18.518Z,13.48
2019-05-13T11:38:43.878Z,13.61
2019-05-13T11:41:13.186Z,13.54
2019-05-13T11:43:42.669Z,13.75
2019-05-13T11:46:11.962Z,13.89
2019-05-13T11:48:42.507Z,13.79
2019-05-13T11:51:13.036Z,13.95
2019-05-13T11:53:43.294Z,14.08
2019-05-13T11:56:12.600Z,14.12
2019-05-13T11:58:43.079Z,14.31
2019-05-13T12:01:13.169Z,14.26
2019-05-13T12:03:43.491Z,14.11
2019-05-13T12:06:13.916Z,14.01
2019-05-13T12:08:55.594Z,13.95
2019-05-13T12:11:25.011Z,14.09
2019-05-13T12:14:37.184Z,14.07
2019-05-13T12:16:44.257Z,14.15
2019-05-13T12:19:13.528Z,14.16
2019-05-13T12:21:46.414Z,14.13
2019-05-13T12:24:25.017Z,14.50
2019-05-13T12:26:54.310Z,14.53
2019-05-13T12:29:23.572Z,14.40
2019-05-13T12:31:52.996Z,14.18
2019-05-13T12:34:22.994Z,13.97
2019-05-13T12:36:53.374Z,13.84
2019-05-13T12:41:54.085Z,13.95
2019-05-13T12:44:24.749Z,13.94
2019-05-13T12:47:14.714Z,13.77
2019-05-13T12:49:44.225Z,13.75
2019-05-13T12:52:15.029Z,14.18
2019-05-13T12:54:44.638Z,14.46
2019-05-13T12:57:16.423Z,14.53
2019-05-13T12:59:46.324Z,14.59
2019-05-13T13:02:15.617Z,14.67
2019-05-13T13:08:16.018Z,14.40
2019-05-13T13:10:24.513Z,14.29
2019-05-13T13:12:54.948Z,14.46
2019-05-13T13:15:36.826Z,14.34
2019-05-13T13:17:55.877Z,14.00
2019-05-13T13:20:25.324Z,13.81
2019-05-13T13:22:54.608Z,13.33
2019-05-13T13:25:24.151Z,13.35
2019-05-13T13:28:09.852Z,13.45
2019-05-13T13:30:26.059Z,13.57
2019-05-13T13:32:55.336Z,13.67
2019-05-13T13:35:24.632Z,13.41
2019-05-13T13:37:53.922Z,13.30
2019-05-13T13:46:06.803Z,13.61
2019-05-13T13:48:36.169Z,13.96
2019-05-13T13:51:05.550Z,14.21
2019-05-13T13:53:34.880Z,14.21
2019-05-13T13:56:04.175Z,14.21
2019-05-13T14:01:26.950Z,14.42
2019-05-13T14:03:53.297Z,14.62
2019-05-13T14:06:33.067Z,13.84
2019-05-13T14:11:44.966Z,14.30
2019-05-13T14:14:14.364Z,14.22
2019-05-13T14:16:46.671Z,14.12
2019-05-13T14:19:14.732Z,13.95
2019-05-13T14:21:44.021Z,14.06
2019-05-13T14:24:33.096Z,14.13
2019-05-13T14:27:03.434Z,14.34
2019-05-13T14:29:40.491Z,14.36
2019-05-13T14:32:04.082Z,14.50
2019-05-13T14:34:33.555Z,14.48
2019-05-13T14:37:02.851Z,14.15
2019-05-13T14:39:33.215Z,13.89
2019-05-13T14:42:03.177Z,13.74
2019-05-13T14:44:32.640Z,13.82
2019-05-13T14:47:02.074Z,13.86
2019-05-13T14:52:22.087Z,14.08
2019-05-13T14:57:32.258Z,14.30
2019-05-13T15:00:02.809Z,14.40
2019-05-13T15:02:35.937Z,14.48
2019-05-13T15:05:05.599Z,14.56
2019-05-13T15:07:35.036Z,14.43
2019-05-13T15:10:04.742Z,14.28
2019-05-13T15:12:34.167Z,14.38
2019-05-13T15:15:03.533Z,14.53
2019-05-13T15:20:48.879Z,14.46
2019-05-13T15:23:18.547Z,14.41
2019-05-13T15:26:08.260Z,14.41
2019-05-13T15:28:37.545Z,14.36
2019-05-13T15:31:46.156Z,14.48
2019-05-13T15:34:15.461Z,14.46
2019-05-13T15:36:51.822Z,14.42
2019-05-13T15:39:42.583Z,14.42
2019-05-13T15:42:12.020Z,14.26
2019-05-13T15:44:41.425Z,14.38
2019-05-13T15:47:22.873Z,14.46
2019-05-13T15:49:41.710Z,14.62
2019-05-13T15:52:11.730Z,14.70
2019-05-13T15:54:42.006Z,14.81
2019-05-13T15:57:31.971Z,14.86
2019-05-13T16:00:02.030Z,14.82
2019-05-13T16:05:20.524Z,14.66
2019-05-13T16:07:51.683Z,14.43
2019-05-13T16:10:20.826Z,14.26
2019-05-13T16:12:51.803Z,14.27
2019-05-13T16:15:21.816Z,14.28
2019-05-13T16:17:52.294Z,14.32
2019-05-13T16:20:21.587Z,14.44
2019-05-13T16:22:52.703Z,14.40
2019-05-13T16:25:21.899Z,14.47
2019-05-13T16:27:52.059Z,14.51
2019-05-13T16:33:17.599Z,14.58
2019-05-13T16:35:46.983Z,14.49
2019-05-13T16:38:16.281Z,14.51
2019-05-13T16:40:45.571Z,14.59
2019-05-13T16:43:15.792Z,14.61
2019-05-13T16:45:45.089Z,14.57
2019-05-13T16:48:14.421Z,14.54
2019-05-13T16:50:43.758Z,14.53
2019-05-13T16:53:13.052Z,14.61
2019-05-13T16:55:42.361Z,14.53
2019-05-13T16:58:12.604Z,14.59
2019-05-13T17:00:42.735Z,14.59
2019-05-13T17:05:51.423Z,14.70
2019-05-13T17:08:22.140Z,14.81
2019-05-13T17:10:51.637Z,14.91
2019-05-13T17:13:22.095Z,14.84
2019-05-13T17:15:52.312Z,14.71
2019-05-13T17:18:23.079Z,14.78
2019-05-13T17:20:52.359Z,14.66
2019-05-13T17:23:21.663Z,14.55
2019-05-13T17:26:11.631Z,14.44
2019-05-13T17:28:41.671Z,14.50
2019-05-13T17:34:01.455Z,14.45
2019-05-13T17:36:32.522Z,14.47
2019-05-13T17:39:02.666Z,14.45
2019-05-13T17:41:32.233Z,14.43
2019-05-13T17:44:02.485Z,14.37
2019-05-13T17:49:08.702Z,14.35
2019-05-13T17:51:57.027Z,14.42
2019-05-13T17:54:45.293Z,14.43
2019-05-13T17:57:14.694Z,14.40
2019-05-13T17:59:43.995Z,14.11
2019-05-13T18:02:13.271Z,13.99
2019-05-13T18:04:42.663Z,13.88
2019-05-13T18:07:12.334Z,13.65
2019-05-13T18:09:43.054Z,13.54
2019-05-13T18:12:12.425Z,13.55
2019-05-13T18:14:41.751Z,13.53
2019-05-13T18:17:12.560Z,13.57
2019-05-13T18:19:42.342Z,13.43
2019-05-13T18:22:11.724Z,13.33
2019-05-13T18:24:41.033Z,13.32
2019-05-13T18:27:12.262Z,13.16
2019-05-13T18:29:42.008Z,13.17
2019-05-13T18:32:12.601Z,13.04
2019-05-13T18:34:42.043Z,13.05
2019-05-13T18:37:31.582Z,13.01
2019-05-13T18:40:02.514Z,12.97
2019-05-13T18:42:32.377Z,12.85
2019-05-13T18:45:02.379Z,12.82
2019-05-13T18:47:32.768Z,12.70
2019-05-13T18:50:02.559Z,12.51
2019-05-13T18:52:33.103Z,12.44
2019-05-13T18:55:02.438Z,12.38
2019-05-13T18:57:32.006Z,12.24
2019-05-13T19:00:02.805Z,12.13
2019-05-13T19:02:32.192Z,12.03
2019-05-13T19:05:01.644Z,11.89
2019-05-13T19:07:31.580Z,11.81
2019-05-13T19:10:02.651Z,11.68
2019-05-13T19:12:33.019Z,11.52
2019-05-13T19:15:02.614Z,11.44
2019-05-13T19:17:36.207Z,11.37
2019-05-13T19:20:04.690Z,11.23
2019-05-13T19:22:34.103Z,11.15
2019-05-13T19:25:03.594Z,11.07
2019-05-13T19:27:33.455Z,11.01
2019-05-13T19:30:02.758Z,10.90
2019-05-13T19:32:32.467Z,10.81
2019-05-13T19:35:03.172Z,10.66
2019-05-13T19:37:32.530Z,10.49
2019-05-13T19:40:02.245Z,10.36
2019-05-13T19:42:31.566Z,10.24
2019-05-13T19:47:51.689Z,9.94
2019-05-13T19:50:22.407Z,9.75
2019-05-13T19:52:51.904Z,9.61
2019-05-13T19:55:22.406Z,9.51
2019-05-13T19:57:51.904Z,9.37
2019-05-13T20:00:21.745Z,9.25
2019-05-13T20:02:51.036Z,9.15
2019-05-13T20:05:21.191Z,9.05
2019-05-13T20:10:42.153Z,8.80
2019-05-13T20:13:11.332Z,8.67
2019-05-13T20:15:41.912Z,8.55
2019-05-13T20:18:12.138Z,8.39
2019-05-13T20:20:42.248Z,8.29
2019-05-13T20:23:12.038Z,8.23
2019-05-13T20:25:42.570Z,8.12
2019-05-13T20:28:11.901Z,7.97
2019-05-13T20:30:42.147Z,7.85
2019-05-13T20:33:12.266Z,7.78
2019-05-13T20:35:42.151Z,7.66
2019-05-13T20:38:12.595Z,7.62
2019-05-13T20:40:41.877Z,7.51
2019-05-13T20:43:11.845Z,7.48
2019-05-13T20:45:42.153Z,7.38
2019-05-13T20:48:12.365Z,7.30
2019-05-13T20:51:02.610Z,7.16
2019-05-13T20:53:31.710Z,7.16
2019-05-13T20:56:01.845Z,7.06
2019-05-13T20:58:32.484Z,7.01
2019-05-13T21:04:12.382Z,6.89
2019-05-13T21:06:42.221Z,6.82
2019-05-13T21:09:16.789Z,6.74
2019-05-13T21:11:43.443Z,6.66
2019-05-13T21:14:12.732Z,6.58
2019-05-13T21:16:42.093Z,6.51
2019-05-13T21:19:12.366Z,6.43
2019-05-13T21:21:42.403Z,6.37
2019-05-13T21:24:11.701Z,6.32
2019-05-13T21:26:42.025Z,6.27
2019-05-13T21:29:11.994Z,6.22
2019-05-13T21:31:41.560Z,6.17
2019-05-13T21:34:12.308Z,6.14
2019-05-13T21:36:41.619Z,6.09
2019-05-13T21:39:12.393Z,6.05
2019-05-13T21:41:41.943Z,6.00
2019-05-13T21:44:11.987Z,5.94
2019-05-13T21:46:42.264Z,5.89
2019-05-13T21:49:12.063Z,5.83
2019-05-13T21:51:42.560Z,5.77
2019-05-13T21:54:12.043Z,5.70
2019-05-13T21:56:42.617Z,5.65
2019-05-13T21:59:12.271Z,5.60
2019-05-13T22:02:01.583Z,5.53
2019-05-13T22:04:31.589Z,5.47
2019-05-13T22:07:01.528Z,5.41
2019-05-13T22:09:32.094Z,5.36
2019-05-13T22:12:01.968Z,5.31
2019-05-13T22:14:51.815Z,5.26
2019-05-13T22:17:22.484Z,5.21
2019-05-13T22:22:41.547Z,5.08
2019-05-13T22:27:46.128Z,4.96
2019-05-13T22:33:12.305Z,4.84
2019-05-13T22:35:41.751Z,4.78
2019-05-13T22:38:12.499Z,4.75
2019-05-13T22:40:43.280Z,4.71
2019-05-13T22:43:12.574Z,4.66
2019-05-13T22:45:42.228Z,4.60
2019-05-13T22:48:14.938Z,4.54
2019-05-13T22:53:20.981Z,4.48
2019-05-13T22:55:51.969Z,4.44
2019-05-13T22:58:22.550Z,4.40
2019-05-13T23:00:51.893Z,4.36
2019-05-13T23:03:21.216Z,4.33
2019-05-13T23:05:52.196Z,4.29
2019-05-13T23:08:21.804Z,4.27
2019-05-13T23:10:51.559Z,4.21
2019-05-13T23:13:22.082Z,4.17
2019-05-13T23:15:51.703Z,4.11
2019-05-13T23:18:22.397Z,4.05
2019-05-13T23:20:51.748Z,4.02
2019-05-13T23:23:22.175Z,3.98
2019-05-13T23:25:52.039Z,3.96
2019-05-13T23:28:21.707Z,3.89
2019-05-13T23:30:52.508Z,3.85
2019-05-13T23:33:22.107Z,3.83
2019-05-13T23:35:52.888Z,3.80
2019-05-13T23:38:41.516Z,3.84
2019-05-13T23:41:11.426Z,3.87
2019-05-13T23:43:41.842Z,3.86
2019-05-13T23:46:11.744Z,3.85
2019-05-13T23:48:42.541Z,3.78
2019-05-13T23:51:13.023Z,3.74
2019-05-13T23:53:42.821Z,3.67
2019-05-13T23:56:12.117Z,3.60
2019-05-13T23:58:41.541Z,3.52
